createdAt,value
2023-01-27T00:00:53.742Z,5.80
2023-01-27T00:03:20.576Z,5.60
2023-01-27T00:05:47.675Z,6.43
2023-01-27T00:08:14.889Z,5.90
2023-01-27T00:10:43.521Z,5.00
2023-01-27T00:13:31.947Z,5.30
2023-01-27T00:15:58.408Z,5.80
2023-01-27T00:18:25.726Z,6.07
2023-01-27T00:21:11.338Z,5.97
2023-01-27T00:23:56.622Z,5.57
2023-01-27T00:26:23.307Z,5.20
2023-01-27T00:28:49.817Z,5.93
2023-01-27T00:31:36.115Z,5.27
2023-01-27T00:34:08.978Z,7.30
2023-01-27T00:36:37.877Z,6.07
2023-01-27T00:39:05.907Z,6.03
2023-01-27T00:41:34.045Z,5.97
2023-01-27T00:44:01.444Z,6.17
2023-01-27T00:46:28.149Z,5.43
2023-01-27T00:48:55.340Z,6.67
2023-01-27T00:51:21.963Z,6.60
2023-01-27T00:53:48.783Z,6.37
2023-01-27T00:56:15.722Z,7.30
2023-01-27T00:58:42.453Z,7.23
2023-01-27T01:01:11.774Z,7.60
2023-01-27T01:03:38.302Z,7.40
2023-01-27T01:06:07.951Z,9.20
2023-01-27T01:08:36.059Z,9.00
2023-01-27T01:11:03.142Z,9.37
2023-01-27T01:13:29.996Z,11.00
2023-01-27T01:15:57.263Z,9.10
2023-01-27T01:18:24.286Z,10.30
2023-01-27T01:20:50.762Z,10.47
2023-01-27T01:23:17.550Z,10.03
2023-01-27T01:25:53.807Z,10.03
2023-01-27T01:28:20.446Z,10.00
2023-01-27T01:30:47.132Z,8.97
2023-01-27T01:33:14.067Z,8.30
2023-01-27T01:35:40.811Z,9.73
2023-01-27T01:38:07.250Z,8.80
2023-01-27T01:40:34.222Z,9.30
2023-01-27T01:43:06.992Z,8.70
2023-01-27T01:45:36.809Z,8.90
2023-01-27T01:48:16.824Z,10.17
2023-01-27T01:50:48.439Z,8.60
2023-01-27T01:53:15.217Z,9.30
2023-01-27T01:55:42.225Z,8.20
2023-01-27T01:58:11.847Z,9.17
2023-01-27T02:00:38.475Z,8.77
2023-01-27T02:03:05.034Z,8.87
2023-01-27T02:05:36.256Z,10.30
2023-01-27T02:08:21.248Z,10.00
2023-01-27T02:10:48.041Z,8.77
2023-01-27T02:13:14.480Z,9.50
2023-01-27T02:15:41.155Z,10.47
2023-01-27T02:18:07.801Z,11.17
2023-01-27T02:20:46.288Z,12.40
2023-01-27T02:23:21.372Z,13.60
2023-01-27T02:26:00.544Z,13.27
2023-01-27T02:28:29.814Z,11.63
2023-01-27T02:30:57.278Z,10.50
2023-01-27T02:33:24.328Z,10.67
2023-01-27T02:35:50.763Z,9.10
2023-01-27T02:38:19.580Z,7.10
2023-01-27T02:40:50.271Z,6.70
2023-01-27T02:43:16.685Z,7.57
2023-01-27T02:45:45.664Z,6.70
2023-01-27T02:48:12.070Z,7.33
2023-01-27T02:50:38.553Z,7.30
2023-01-27T02:53:05.503Z,8.00
2023-01-27T02:55:31.926Z,8.63
2023-01-27T02:57:58.541Z,8.60
2023-01-27T03:00:25.088Z,10.00
2023-01-27T03:02:51.501Z,10.60
2023-01-27T03:05:17.894Z,9.73
2023-01-27T03:07:44.353Z,10.33
2023-01-27T03:10:11.113Z,9.53
2023-01-27T03:12:37.715Z,9.47
2023-01-27T03:15:22.982Z,11.03
2023-01-27T03:18:07.686Z,10.03
2023-01-27T03:20:34.145Z,10.90
2023-01-27T03:23:00.726Z,10.20
2023-01-27T03:25:27.180Z,10.80
2023-01-27T03:27:53.605Z,10.53
2023-01-27T03:30:20.222Z,10.80
2023-01-27T03:32:46.833Z,9.43
2023-01-27T03:35:17.312Z,11.00
2023-01-27T03:38:02.870Z,9.70
2023-01-27T03:40:48.188Z,8.77
2023-01-27T03:43:32.954Z,9.33
2023-01-27T03:46:20.479Z,9.47
2023-01-27T03:48:55.301Z,8.93
2023-01-27T03:51:24.534Z,8.80
2023-01-27T03:53:50.984Z,9.47
2023-01-27T03:56:19.607Z,7.93
2023-01-27T03:58:48.532Z,8.00
2023-01-27T04:01:20.688Z,7.00
2023-01-27T04:04:06.865Z,8.60
2023-01-27T04:06:55.231Z,8.20
2023-01-27T04:09:33.957Z,8.30
2023-01-27T04:12:04.420Z,7.47
2023-01-27T04:14:38.917Z,8.00
2023-01-27T04:17:10.872Z,7.00
2023-01-27T04:19:37.627Z,7.23
2023-01-27T04:22:05.704Z,7.03
2023-01-27T04:24:33.061Z,8.07
2023-01-27T04:27:04.802Z,7.23
2023-01-27T04:29:36.220Z,8.33
2023-01-27T04:32:04.419Z,9.00
2023-01-27T04:34:30.946Z,7.40
2023-01-27T04:36:58.039Z,8.93
2023-01-27T04:39:25.454Z,8.30
2023-01-27T04:41:51.966Z,7.90
2023-01-27T04:44:21.737Z,8.33
2023-01-27T04:46:48.984Z,9.13
2023-01-27T04:49:15.699Z,9.70
2023-01-27T04:51:42.412Z,10.17
2023-01-27T04:54:09.151Z,11.10
2023-01-27T04:56:42.395Z,10.77
2023-01-27T04:59:12.569Z,10.37
2023-01-27T05:01:39.039Z,11.00
2023-01-27T05:04:05.596Z,10.83
2023-01-27T05:06:32.246Z,10.50
2023-01-27T05:08:58.798Z,10.77
2023-01-27T05:11:25.361Z,11.23
2023-01-27T05:13:51.805Z,9.90
2023-01-27T05:16:23.523Z,11.30
2023-01-27T05:18:51.663Z,11.17
2023-01-27T05:21:23.940Z,10.50
2023-01-27T05:23:50.625Z,9.77
2023-01-27T05:26:23.072Z,11.20
2023-01-27T05:28:50.843Z,10.93
2023-01-27T05:31:21.217Z,11.10
2023-01-27T05:33:50.864Z,10.50
2023-01-27T05:36:19.727Z,10.67
2023-01-27T05:38:46.786Z,10.80
2023-01-27T05:41:15.084Z,10.77
2023-01-27T05:43:43.559Z,10.73
2023-01-27T05:46:13.277Z,9.97
2023-01-27T05:48:42.575Z,10.47
2023-01-27T05:51:09.732Z,10.93
2023-01-27T05:53:36.480Z,11.50
2023-01-27T05:56:04.145Z,12.70
2023-01-27T05:58:31.371Z,11.40
2023-01-27T06:01:09.730Z,10.60
2023-01-27T06:03:37.002Z,12.33
2023-01-27T06:06:04.015Z,13.77
2023-01-27T06:08:31.178Z,12.20
2023-01-27T06:10:58.865Z,13.53
2023-01-27T06:13:25.848Z,11.77
2023-01-27T06:15:52.807Z,13.80
2023-01-27T06:18:19.567Z,13.70
2023-01-27T06:20:46.292Z,15.97
2023-01-27T06:23:14.834Z,15.30
2023-01-27T06:25:47.677Z,12.13
2023-01-27T06:28:28.123Z,12.17
2023-01-27T06:30:56.392Z,11.83
2023-01-27T06:33:23.216Z,11.13
2023-01-27T06:35:49.654Z,11.83
2023-01-27T06:38:16.103Z,12.37
2023-01-27T06:40:43.244Z,11.53
2023-01-27T06:43:13.865Z,10.37
2023-01-27T06:45:40.841Z,12.00
2023-01-27T06:48:08.576Z,11.37
2023-01-27T06:50:36.043Z,11.07
2023-01-27T06:53:05.690Z,12.17
2023-01-27T06:55:32.404Z,11.80
2023-01-27T06:57:59.311Z,11.30
2023-01-27T07:00:25.849Z,12.67
2023-01-27T07:02:55.709Z,12.57
2023-01-27T07:05:22.232Z,11.23
2023-01-27T07:07:48.692Z,11.67
2023-01-27T07:10:15.910Z,11.10
2023-01-27T07:12:42.707Z,12.43
2023-01-27T07:15:10.491Z,12.40
2023-01-27T07:17:37.453Z,12.17
2023-01-27T07:20:06.437Z,12.80
2023-01-27T07:22:32.920Z,13.70
2023-01-27T07:24:59.507Z,11.80
2023-01-27T07:27:26.223Z,11.43
2023-01-27T07:29:52.745Z,12.90
2023-01-27T07:32:19.218Z,12.10
2023-01-27T07:34:45.766Z,12.00
2023-01-27T07:37:13.191Z,11.40
2023-01-27T07:39:39.726Z,11.83
2023-01-27T07:42:06.724Z,12.27
2023-01-27T07:44:33.292Z,11.30
2023-01-27T07:46:59.940Z,11.30
2023-01-27T07:49:27.614Z,11.00
2023-01-27T07:51:54.398Z,11.97
2023-01-27T07:54:20.945Z,11.40
2023-01-27T07:56:47.414Z,10.93
2023-01-27T07:59:14.107Z,11.50
2023-01-27T08:01:41.788Z,10.90
2023-01-27T08:04:08.596Z,10.40
2023-01-27T08:06:35.190Z,11.07
2023-01-27T08:09:01.773Z,11.10
2023-01-27T08:11:28.363Z,11.00
2023-01-27T08:13:54.805Z,10.93
2023-01-27T08:16:21.332Z,10.60
2023-01-27T08:18:47.832Z,10.07
2023-01-27T08:21:14.288Z,9.07
2023-01-27T08:23:40.771Z,9.93
2023-01-27T08:26:07.809Z,10.00
2023-01-27T08:28:37.443Z,10.43
2023-01-27T08:31:04.806Z,8.87
2023-01-27T08:33:31.640Z,9.33
2023-01-27T08:36:06.469Z,9.53
2023-01-27T08:38:34.440Z,8.50
2023-01-27T08:41:13.788Z,10.53
2023-01-27T08:43:40.974Z,9.67
2023-01-27T08:46:08.615Z,9.97
2023-01-27T08:48:36.165Z,10.30
2023-01-27T08:51:03.722Z,10.97
2023-01-27T08:53:31.204Z,11.77
2023-01-27T08:56:02.527Z,11.07
2023-01-27T08:58:29.035Z,11.60
2023-01-27T09:00:55.487Z,11.63
2023-01-27T09:03:21.993Z,12.17
2023-01-27T09:05:48.492Z,12.03
2023-01-27T09:08:15.936Z,11.80
2023-01-27T09:10:42.984Z,10.80
2023-01-27T09:13:09.470Z,10.83
2023-01-27T09:15:37.201Z,11.27
2023-01-27T09:18:06.612Z,11.67
2023-01-27T09:20:34.502Z,10.97
2023-01-27T09:23:02.389Z,12.00
2023-01-27T09:25:28.871Z,10.43
2023-01-27T09:27:56.858Z,10.73
2023-01-27T09:30:24.496Z,10.10
2023-01-27T09:32:51.151Z,10.33
2023-01-27T09:35:18.106Z,9.97
2023-01-27T09:37:54.170Z,10.00
2023-01-27T09:40:36.060Z,11.00
2023-01-27T09:43:36.535Z,9.40
2023-01-27T09:46:42.131Z,10.47
2023-01-27T09:49:23.959Z,10.40
2023-01-27T09:52:17.162Z,10.67
2023-01-27T09:54:55.740Z,10.53
2023-01-27T09:57:37.498Z,11.07
2023-01-27T10:00:32.806Z,11.80
2023-01-27T10:03:13.366Z,11.30
2023-01-27T10:05:53.132Z,11.00
2023-01-27T10:08:37.355Z,11.43
2023-01-27T10:11:42.367Z,11.30
2023-01-27T10:14:20.982Z,10.53
2023-01-27T10:16:51.805Z,11.00
2023-01-27T10:19:45.658Z,9.77
2023-01-27T10:22:17.703Z,10.13
2023-01-27T10:25:14.132Z,9.97
2023-01-27T10:27:47.345Z,8.90
2023-01-27T10:30:21.314Z,8.67
2023-01-27T10:32:57.500Z,8.33
2023-01-27T10:35:31.836Z,7.90
2023-01-27T10:38:03.894Z,9.00
2023-01-27T10:40:58.420Z,8.50
2023-01-27T10:43:39.171Z,8.33
2023-01-27T10:46:13.426Z,9.37
2023-01-27T10:49:05.173Z,8.57
2023-01-27T10:51:44.010Z,9.40
2023-01-27T10:54:30.701Z,8.73
2023-01-27T10:57:04.399Z,9.20
2023-01-27T11:00:21.975Z,8.43
2023-01-27T11:03:28.443Z,9.00
2023-01-27T11:06:02.287Z,7.67
2023-01-27T11:08:35.896Z,8.20
2023-01-27T11:11:25.997Z,8.07
2023-01-27T11:14:02.707Z,8.80
2023-01-27T11:16:35.457Z,7.67
2023-01-27T11:19:14.401Z,8.13
2023-01-27T11:21:41.816Z,9.03
2023-01-27T11:24:21.865Z,8.23
2023-01-27T11:27:03.687Z,9.60
2023-01-27T11:29:42.993Z,9.90
2023-01-27T11:32:41.866Z,10.70
2023-01-27T11:35:16.417Z,10.07
2023-01-27T11:37:45.420Z,10.00
2023-01-27T11:40:25.477Z,10.13
2023-01-27T11:42:52.340Z,10.30
2023-01-27T11:45:21.007Z,10.20
2023-01-27T11:47:52.810Z,10.60
2023-01-27T11:50:22.074Z,10.97
2023-01-27T11:52:55.067Z,10.70
2023-01-27T11:55:28.300Z,9.90
2023-01-27T11:58:08.886Z,10.43
2023-01-27T12:00:44.088Z,10.30
2023-01-27T12:03:13.599Z,10.00
2023-01-27T12:05:48.004Z,11.47
2023-01-27T12:08:36.927Z,10.27
2023-01-27T12:11:16.550Z,10.30
2023-01-27T12:14:04.389Z,9.63
2023-01-27T12:16:39.847Z,10.77
2023-01-27T12:19:21.806Z,10.00
2023-01-27T12:21:52.229Z,11.63
2023-01-27T12:24:30.649Z,10.27
2023-01-27T12:26:58.503Z,11.63
2023-01-27T12:29:41.415Z,10.90
2023-01-27T12:32:23.525Z,9.70
2023-01-27T12:34:56.534Z,10.40
2023-01-27T12:37:33.745Z,10.20
2023-01-27T12:40:03.550Z,11.20
2023-01-27T12:42:42.519Z,11.07
2023-01-27T12:45:18.314Z,11.17
2023-01-27T12:48:10.130Z,11.10
2023-01-27T12:50:41.972Z,11.80
2023-01-27T12:53:08.343Z,11.23
2023-01-27T12:55:52.255Z,11.20
2023-01-27T12:58:37.456Z,10.50
2023-01-27T13:01:18.504Z,11.53
2023-01-27T13:03:45.632Z,10.53
2023-01-27T13:06:16.625Z,10.23
2023-01-27T13:08:44.156Z,11.23
2023-01-27T13:11:11.637Z,10.47
2023-01-27T13:13:48.808Z,9.60
2023-01-27T13:16:25.680Z,8.67
2023-01-27T13:18:58.103Z,8.60
2023-01-27T13:21:37.794Z,8.63
2023-01-27T13:24:12.571Z,8.37
2023-01-27T13:26:41.008Z,8.03
2023-01-27T13:29:10.411Z,8.27
2023-01-27T13:31:52.104Z,7.40
2023-01-27T13:34:29.666Z,7.77
2023-01-27T13:37:01.068Z,6.70
2023-01-27T13:40:10.162Z,7.03
2023-01-27T13:42:44.200Z,6.30
2023-01-27T13:45:14.407Z,6.70
2023-01-27T13:47:46.820Z,6.07
2023-01-27T13:50:29.281Z,5.93
2023-01-27T13:52:58.976Z,5.33
2023-01-27T13:55:57.813Z,4.73
2023-01-27T13:58:44.371Z,5.07
2023-01-27T14:01:28.483Z,4.70
2023-01-27T14:04:32.570Z,4.20
2023-01-27T14:07:21.966Z,4.00
2023-01-27T14:10:04.167Z,4.20
2023-01-27T14:13:16.492Z,4.43
2023-01-27T14:15:52.058Z,5.10
2023-01-27T14:18:23.781Z,6.07
2023-01-27T14:21:07.935Z,4.10
2023-01-27T14:24:05.850Z,4.50
2023-01-27T14:26:49.765Z,4.20
2023-01-27T14:29:22.231Z,4.30
2023-01-27T14:32:14.177Z,4.50
2023-01-27T14:34:46.728Z,4.53
2023-01-27T14:37:16.060Z,4.47
2023-01-27T14:39:59.551Z,6.07
2023-01-27T14:42:41.969Z,5.77
2023-01-27T14:45:17.980Z,5.13
2023-01-27T14:47:57.116Z,5.10
2023-01-27T14:50:38.197Z,5.33
2023-01-27T14:53:41.371Z,6.13
2023-01-27T14:56:26.082Z,5.70
2023-01-27T14:59:02.742Z,5.97
2023-01-27T15:01:56.204Z,5.43
2023-01-27T15:04:34.252Z,6.07
2023-01-27T15:07:27.599Z,5.40
2023-01-27T15:10:20.555Z,4.93
2023-01-27T15:12:48.097Z,4.90
2023-01-27T15:15:49.935Z,5.70
2023-01-27T15:18:46.303Z,4.90
2023-01-27T15:21:30.714Z,4.83
2023-01-27T15:24:19.542Z,4.70
2023-01-27T15:26:48.036Z,4.77
2023-01-27T15:29:15.321Z,4.17
2023-01-27T15:31:43.079Z,4.70
2023-01-27T15:34:23.258Z,5.30
2023-01-27T15:37:02.529Z,5.50
2023-01-27T15:39:41.046Z,5.47
2023-01-27T15:42:11.325Z,5.27
2023-01-27T15:44:58.739Z,5.43
2023-01-27T15:47:28.587Z,5.43
2023-01-27T15:50:12.938Z,5.27
2023-01-27T15:52:48.582Z,5.87
2023-01-27T15:55:28.932Z,5.33
2023-01-27T15:58:27.667Z,4.80
2023-01-27T16:00:57.152Z,4.90
2023-01-27T16:03:28.274Z,4.33
2023-01-27T16:06:00.701Z,3.90
2023-01-27T16:08:32.854Z,4.70
2023-01-27T16:11:31.771Z,4.30
2023-01-27T16:14:17.005Z,4.47
2023-01-27T16:17:03.087Z,3.90
2023-01-27T16:19:33.386Z,4.67
2023-01-27T16:22:05.179Z,4.70
2023-01-27T16:24:41.219Z,4.30
2023-01-27T16:27:15.739Z,4.73
2023-01-27T16:29:47.632Z,4.70
2023-01-27T16:32:20.034Z,4.73
2023-01-27T16:34:58.644Z,4.60
2023-01-27T16:37:29.193Z,4.60
2023-01-27T16:40:02.090Z,4.90
2023-01-27T16:42:45.780Z,4.50
2023-01-27T16:45:45.955Z,4.67
2023-01-27T16:48:29.719Z,5.30
2023-01-27T16:51:08.755Z,5.17
2023-01-27T16:53:35.312Z,6.47
2023-01-27T16:56:05.281Z,5.97
2023-01-27T16:58:45.589Z,5.90
2023-01-27T17:01:24.687Z,6.33
2023-01-27T17:03:55.222Z,5.93
2023-01-27T17:06:23.052Z,6.03
2023-01-27T17:08:49.870Z,5.83
2023-01-27T17:11:36.563Z,6.10
2023-01-27T17:14:28.521Z,5.60
2023-01-27T17:16:59.578Z,5.80
2023-01-27T17:19:32.423Z,5.50
2023-01-27T17:22:00.463Z,5.23
2023-01-27T17:24:32.229Z,4.97
2023-01-27T17:27:03.820Z,6.37
2023-01-27T17:29:37.977Z,5.80
2023-01-27T17:32:17.528Z,5.40
2023-01-27T17:34:44.307Z,5.23
2023-01-27T17:37:17.339Z,5.27
2023-01-27T17:39:45.332Z,5.30
2023-01-27T17:42:17.147Z,4.70
2023-01-27T17:44:45.085Z,4.73
2023-01-27T17:47:15.120Z,4.90
2023-01-27T17:49:42.879Z,4.93
2023-01-27T17:52:11.818Z,4.70
2023-01-27T17:54:39.303Z,5.03
2023-01-27T17:57:23.818Z,4.90
2023-01-27T18:00:02.606Z,5.70
2023-01-27T18:02:32.317Z,5.20
2023-01-27T18:05:06.211Z,4.77
2023-01-27T18:07:33.143Z,5.53
2023-01-27T18:09:59.651Z,6.50
2023-01-27T18:12:32.465Z,6.47
2023-01-27T18:15:19.361Z,6.33
2023-01-27T18:17:58.285Z,6.43
2023-01-27T18:20:33.913Z,6.10
2023-01-27T18:23:01.587Z,6.20
2023-01-27T18:25:28.198Z,7.00
2023-01-27T18:27:55.844Z,7.27
2023-01-27T18:30:23.763Z,7.50
2023-01-27T18:33:01.328Z,6.80
2023-01-27T18:35:32.726Z,6.80
2023-01-27T18:38:05.259Z,7.07
2023-01-27T18:40:33.627Z,7.00
2023-01-27T18:43:00.823Z,7.40
2023-01-27T18:45:27.557Z,6.97
2023-01-27T18:47:54.676Z,7.70
2023-01-27T18:50:23.030Z,7.00
2023-01-27T18:52:50.519Z,7.50
2023-01-27T18:55:24.258Z,8.10
2023-01-27T18:57:52.941Z,9.60
2023-01-27T19:00:22.491Z,8.90
2023-01-27T19:02:51.891Z,7.97
2023-01-27T19:05:20.373Z,8.90
2023-01-27T19:07:47.221Z,9.67
2023-01-27T19:10:17.306Z,9.60
2023-01-27T19:12:43.921Z,8.80
2023-01-27T19:15:13.520Z,8.00
2023-01-27T19:17:40.321Z,7.73
2023-01-27T19:20:18.773Z,8.20
2023-01-27T19:22:46.161Z,9.43
2023-01-27T19:25:13.903Z,10.47
2023-01-27T19:27:43.126Z,7.30
2023-01-27T19:30:27.674Z,9.27
2023-01-27T19:32:55.693Z,9.63
2023-01-27T19:35:24.395Z,9.33
2023-01-27T19:37:54.140Z,8.07
2023-01-27T19:40:26.373Z,7.67
2023-01-27T19:42:53.254Z,7.60
2023-01-27T19:45:21.465Z,7.63
2023-01-27T19:47:49.437Z,7.87
2023-01-27T19:50:15.819Z,8.63
2023-01-27T19:52:42.263Z,9.07
2023-01-27T19:55:09.457Z,8.30
2023-01-27T19:57:36.271Z,9.17
2023-01-27T20:00:05.220Z,12.20
2023-01-27T20:02:31.916Z,11.77
2023-01-27T20:04:58.403Z,9.23
2023-01-27T20:07:24.937Z,8.90
2023-01-27T20:09:51.346Z,9.60
2023-01-27T20:12:17.802Z,7.90
2023-01-27T20:14:44.317Z,8.27
2023-01-27T20:17:12.345Z,8.40
2023-01-27T20:19:38.797Z,8.20
2023-01-27T20:22:05.202Z,7.70
2023-01-27T20:24:31.617Z,7.93
2023-01-27T20:26:58.535Z,7.53
2023-01-27T20:29:25.063Z,7.67
2023-01-27T20:31:52.523Z,7.90
2023-01-27T20:34:19.054Z,6.77
2023-01-27T20:36:45.459Z,6.80
2023-01-27T20:39:12.409Z,6.63
2023-01-27T20:41:38.814Z,6.40
2023-01-27T20:44:05.326Z,6.50
2023-01-27T20:46:31.857Z,6.80
2023-01-27T20:48:59.486Z,6.60
2023-01-27T20:51:26.043Z,7.10
2023-01-27T20:53:52.534Z,6.47
2023-01-27T20:56:23.367Z,6.57
2023-01-27T20:58:50.093Z,5.50
2023-01-27T21:01:22.019Z,5.73
2023-01-27T21:03:48.943Z,5.70
2023-01-27T21:06:17.680Z,5.03
2023-01-27T21:08:44.152Z,5.70
2023-01-27T21:11:12.787Z,6.43
2023-01-27T21:13:39.393Z,5.90
2023-01-27T21:16:06.179Z,5.50
2023-01-27T21:18:32.671Z,5.30
2023-01-27T21:21:00.753Z,4.90
2023-01-27T21:23:32.421Z,4.70
2023-01-27T21:26:09.455Z,4.40
2023-01-27T21:28:35.964Z,4.40
2023-01-27T21:31:07.548Z,4.90
2023-01-27T21:33:36.212Z,4.97
2023-01-27T21:36:03.949Z,5.60
2023-01-27T21:38:31.936Z,4.70
2023-01-27T21:41:10.747Z,5.40
2023-01-27T21:43:55.890Z,5.50
2023-01-27T21:46:22.879Z,5.67
2023-01-27T21:48:49.778Z,5.80
2023-01-27T21:51:16.327Z,5.63
2023-01-27T21:53:42.792Z,5.30
2023-01-27T21:56:10.835Z,5.50
2023-01-27T21:58:37.596Z,6.10
2023-01-27T22:01:08.530Z,5.73
2023-01-27T22:03:36.707Z,5.67
2023-01-27T22:06:07.629Z,5.83
2023-01-27T22:08:34.773Z,5.10
2023-01-27T22:11:06.032Z,5.60
2023-01-27T22:13:33.343Z,6.17
2023-01-27T22:16:00.519Z,5.23
2023-01-27T22:18:27.337Z,5.20
2023-01-27T22:20:53.960Z,4.90
2023-01-27T22:23:20.586Z,5.07
2023-01-27T22:25:51.336Z,5.20
2023-01-27T22:28:18.299Z,5.60
2023-01-27T22:30:44.802Z,5.47
2023-01-27T22:33:12.510Z,5.63
2023-01-27T22:35:39.542Z,5.47
2023-01-27T22:38:06.470Z,5.63
2023-01-27T22:40:33.018Z,5.40
2023-01-27T22:42:59.468Z,5.30
2023-01-27T22:45:25.959Z,5.60
2023-01-27T22:47:52.811Z,6.00
2023-01-27T22:50:19.447Z,5.27
2023-01-27T22:52:45.881Z,5.90
2023-01-27T22:55:13.157Z,5.53
2023-01-27T22:57:39.880Z,5.40
2023-01-27T23:00:07.334Z,5.60
2023-01-27T23:02:36.990Z,5.50
2023-01-27T23:05:03.650Z,5.60
2023-01-27T23:07:30.107Z,5.70
2023-01-27T23:09:56.563Z,4.90
2023-01-27T23:12:23.040Z,4.73
2023-01-27T23:14:49.540Z,5.27
2023-01-27T23:17:16.066Z,5.40
2023-01-27T23:19:42.500Z,4.73
2023-01-27T23:22:08.956Z,4.87
2023-01-27T23:24:35.468Z,4.60
2023-01-27T23:27:01.956Z,3.87
2023-01-27T23:29:29.330Z,3.60
2023-01-27T23:31:56.161Z,4.20
2023-01-27T23:34:22.817Z,4.30
2023-01-27T23:36:49.659Z,4.40
2023-01-27T23:39:16.900Z,4.17
2023-01-27T23:41:43.451Z,4.33
2023-01-27T23:44:13.239Z,4.30
2023-01-27T23:46:40.484Z,3.80
2023-01-27T23:49:07.884Z,4.17
2023-01-27T23:51:34.426Z,4.50
2023-01-27T23:54:02.089Z,4.97
2023-01-27T23:56:28.896Z,4.40
2023-01-27T23:58:55.736Z,4.87
